Time;durP1;ratioP1;P1;durP2;ratioP2;P2;SDS_P1;SDS_P2;PMS_P1;PMS_P2;Temp;Humidity;BMP_temperature;BMP_pressure;BME280_temperature;BME280_humidity;BME280_pressure;Samples;Min_cycle;Max_cycle;Signal;HPM_P1;HPM_P2
2021/03/20 00:01:14;;;;;;;1.57;1.10;;;;;;;-0.36;67.09;101801.84;5038929;28;20198;-79
2021/03/20 00:03:41;;;;;;;1.47;1.27;;;;;;;-0.32;66.07;101809.75;5022310;28;20222;-79
2021/03/20 00:06:07;;;;;;;1.30;1.20;;;;;;;-0.32;66.40;101808.88;5037815;28;20732;-79
2021/03/20 00:08:34;;;;;;;2.57;1.40;;;;;;;-0.34;66.43;101810.47;5021821;28;20210;-78
2021/03/20 00:11:01;;;;;;;1.73;1.50;;;;;;;-0.36;66.10;101812.09;5078412;22;20229;-75
2021/03/20 00:13:30;;;;;;;2.03;1.40;;;;;;;-0.32;66.46;101816.56;5080341;28;20208;-77
2021/03/20 00:15:56;;;;;;;2.00;1.47;;;;;;;-0.34;66.47;101825.88;5076519;28;20223;-76
2021/03/20 00:18:24;;;;;;;2.23;1.03;;;;;;;-0.34;66.35;101824.19;5073253;28;20300;-76
2021/03/20 00:20:51;;;;;;;2.57;1.23;;;;;;;-0.38;66.67;101829.97;5071732;28;20221;-75
2021/03/20 00:23:17;;;;;;;1.80;1.50;;;;;;;-0.35;66.43;101825.00;5067644;28;20212;-75
2021/03/20 00:25:44;;;;;;;2.83;1.50;;;;;;;-0.37;67.22;101824.06;5071491;28;20213;-76
2021/03/20 00:28:14;;;;;;;1.70;1.60;;;;;;;-0.45;67.24;101827.94;5072523;28;20311;-76
2021/03/20 00:30:40;;;;;;;4.57;1.60;;;;;;;-0.57;67.92;101825.66;5071323;28;20598;-76
2021/03/20 00:33:07;;;;;;;2.27;1.30;;;;;;;-0.56;67.57;101817.16;5072470;28;20202;-75
2021/03/20 00:35:33;;;;;;;1.67;1.50;;;;;;;-0.51;67.03;101818.25;5072097;28;20641;-76
2021/03/20 00:37:59;;;;;;;1.83;1.20;;;;;;;-0.56;67.52;101814.59;5072324;28;20230;-76
2021/03/20 00:40:29;;;;;;;2.73;1.50;;;;;;;-0.70;68.28;101801.09;5071459;28;20227;-76
2021/03/20 00:42:55;;;;;;;2.73;1.43;;;;;;;-0.71;68.57;101793.34;5071786;28;20204;-76
2021/03/20 00:45:26;;;;;;;2.07;1.33;;;;;;;-0.74;68.13;101799.19;5072000;28;20316;-76
2021/03/20 00:47:53;;;;;;;3.20;1.43;;;;;;;-0.79;68.20;101792.97;5072291;28;20414;-76
2021/03/20 00:50:22;;;;;;;2.50;1.40;;;;;;;-0.84;68.18;101799.53;5071960;28;20223;-74
2021/03/20 00:52:48;;;;;;;2.63;1.50;;;;;;;-0.84;69.73;101799.53;5071745;28;20643;-77
2021/03/20 00:55:15;;;;;;;1.20;1.10;;;;;;;-0.88;69.42;101797.63;5071534;28;20242;-77
2021/03/20 00:57:42;;;;;;;1.90;1.60;;;;;;;-0.97;69.81;101802.28;5072512;28;20207;-76
2021/03/20 01:00:17;;;;;;;1.83;1.40;;;;;;;-0.99;70.30;101802.22;5071858;28;20216;-76
2021/03/20 01:02:44;;;;;;;1.47;1.20;;;;;;;-0.91;69.83;101798.38;5071509;28;20658;-77
2021/03/20 01:05:13;;;;;;;2.20;0.97;;;;;;;-0.82;69.71;101797.94;5071547;28;20225;-76
2021/03/20 01:07:39;;;;;;;2.00;1.37;;;;;;;-0.91;70.97;101815.41;5072210;28;20281;-77
2021/03/20 01:10:07;;;;;;;2.30;1.37;;;;;;;-0.95;70.33;101805.81;5071347;28;20236;-77
2021/03/20 01:12:33;;;;;;;2.77;1.40;;;;;;;-1.10;69.33;101799.13;5071654;28;20603;-77
2021/03/20 01:14:59;;;;;;;2.90;1.30;;;;;;;-1.11;69.23;101804.16;5069518;28;20236;-77
2021/03/20 01:17:25;;;;;;;1.87;1.30;;;;;;;-1.03;68.96;101813.09;5065522;28;20697;-76
2021/03/20 01:19:51;;;;;;;2.00;1.47;;;;;;;-0.92;68.21;101805.97;5071179;28;20308;-76
2021/03/20 01:22:17;;;;;;;2.70;1.40;;;;;;;-0.87;67.66;101809.66;5071639;28;20196;-76
2021/03/20 01:24:43;;;;;;;2.00;1.37;;;;;;;-0.80;67.52;101820.25;5070736;28;20224;-76
2021/03/20 01:27:09;;;;;;;3.00;1.30;;;;;;;-0.78;68.39;101816.91;5071825;28;20662;-75
2021/03/20 01:29:35;;;;;;;1.90;1.43;;;;;;;-0.74;68.61;101826.50;5071366;28;20327;-76
2021/03/20 01:32:01;;;;;;;3.33;1.33;;;;;;;-0.73;68.67;101818.91;5072059;28;20200;-77
2021/03/20 01:34:27;;;;;;;1.87;1.13;;;;;;;-0.75;68.77;101825.63;5070520;28;20213;-76
2021/03/20 01:36:53;;;;;;;2.10;1.40;;;;;;;-0.79;69.26;101818.59;5071485;28;20283;-76
2021/03/20 01:39:19;;;;;;;1.33;1.23;;;;;;;-0.91;70.36;101830.78;5065158;28;20616;-75
2021/03/20 01:41:45;;;;;;;2.97;1.60;;;;;;;-1.06;70.55;101825.78;5064182;28;20208;-76
2021/03/20 01:44:17;;;;;;;2.10;1.37;;;;;;;-1.15;71.38;101831.34;5070851;28;20257;-76
2021/03/20 01:46:51;;;;;;;1.20;1.10;;;;;;;-1.29;71.37;101832.28;5071093;28;20228;-76
2021/03/20 01:49:21;;;;;;;2.77;1.37;;;;;;;-1.20;71.37;101831.06;5071310;28;20300;-75
2021/03/20 01:51:55;;;;;;;1.33;1.13;;;;;;;-1.28;71.35;101827.25;5063876;28;20208;-75
2021/03/20 01:54:21;;;;;;;3.50;1.50;;;;;;;-1.24;70.50;101834.28;5070521;28;20242;-77
2021/03/20 01:56:47;;;;;;;1.57;1.37;;;;;;;-1.13;70.23;101828.81;5073010;28;20201;-76
2021/03/20 01:59:15;;;;;;;2.13;1.33;;;;;;;-1.10;70.35;101829.00;5073318;28;20212;-76
2021/03/20 02:01:41;;;;;;;2.50;1.30;;;;;;;-1.15;70.83;101830.44;5071335;28;20566;-75
2021/03/20 02:04:07;;;;;;;5.30;1.43;;;;;;;-1.14;70.62;101827.94;5071054;28;20236;-77
2021/03/20 02:06:34;;;;;;;2.40;1.60;;;;;;;-1.11;70.60;101820.44;5071135;28;20579;-76
2021/03/20 02:09:06;;;;;;;1.53;1.00;;;;;;;-1.07;70.79;101814.66;5071432;28;20200;-76
2021/03/20 02:11:36;;;;;;;1.43;1.10;;;;;;;-1.08;70.13;101819.69;5070668;28;20269;-76
2021/03/20 02:14:11;;;;;;;2.80;1.47;;;;;;;-1.03;69.63;101820.78;5071166;28;20201;-76
2021/03/20 02:16:42;;;;;;;2.90;1.47;;;;;;;-1.02;68.83;101815.75;5070663;28;20219;-76
2021/03/20 02:19:17;;;;;;;1.97;1.40;;;;;;;-1.01;68.32;101819.22;5070978;28;20216;-75
2021/03/20 02:21:50;;;;;;;3.00;2.13;;;;;;;-0.98;68.62;101819.34;5071355;28;20236;-77
2021/03/20 02:25:09;;;;;;;4.30;1.97;;;;;;;-0.98;68.25;101819.34;5070361;28;20217;-77
2021/03/20 02:28:01;;;;;;;4.80;1.70;;;;;;;-1.00;68.52;101803.91;5071354;28;20198;-77
2021/03/20 02:30:49;;;;;;;2.00;1.47;;;;;;;-1.02;68.92;101810.63;5070329;28;20224;-75
2021/03/20 02:33:30;;;;;;;1.50;1.40;;;;;;;-1.05;69.26;101809.59;5070723;28;20208;-76
2021/03/20 02:36:06;;;;;;;2.60;1.47;;;;;;;-1.08;69.13;101804.31;5070772;28;20208;-76
2021/03/20 02:38:40;;;;;;;2.10;1.80;;;;;;;-1.11;68.78;101806.72;5077188;28;20208;-76
2021/03/20 02:41:14;;;;;;;1.90;1.67;;;;;;;-1.11;69.43;101805.06;5083302;28;20220;-77
2021/03/20 02:43:48;;;;;;;4.00;2.50;;;;;;;-1.14;70.00;101810.00;5085451;28;20242;-76
2021/03/20 02:46:22;;;;;;;2.03;1.83;;;;;;;-1.15;70.37;101804.81;5071486;28;20684;-76
2021/03/20 02:48:55;;;;;;;2.47;1.63;;;;;;;-1.20;69.55;101813.13;5050883;28;20206;-76
2021/03/20 02:51:26;;;;;;;2.23;1.70;;;;;;;-1.18;69.46;101809.78;5068308;28;20446;-76
2021/03/20 02:53:59;;;;;;;3.37;1.50;;;;;;;-1.15;69.88;101804.81;5070592;28;20234;-76
2021/03/20 02:56:29;;;;;;;2.93;1.80;;;;;;;-1.10;69.97;101803.38;5070362;28;20205;-76
2021/03/20 02:59:02;;;;;;;1.90;1.70;;;;;;;-1.09;69.51;101802.56;5071109;28;20212;-76
2021/03/20 03:01:30;;;;;;;1.90;1.43;;;;;;;-1.09;69.75;101794.88;5069958;28;20197;-76
2021/03/20 03:03:58;;;;;;;2.20;2.00;;;;;;;-1.11;69.83;101794.81;5070434;28;20225;-76
2021/03/20 03:06:29;;;;;;;2.73;1.57;;;;;;;-1.11;70.10;101797.38;5063980;28;20655;-76
2021/03/20 03:08:59;;;;;;;1.87;1.67;;;;;;;-1.18;70.15;101802.97;5074688;28;20212;-76
2021/03/20 03:11:32;;;;;;;1.83;1.50;;;;;;;-1.25;70.22;101800.91;5072413;28;20668;-76
2021/03/20 03:14:03;;;;;;;1.97;1.50;;;;;;;-1.24;70.27;101788.16;5073796;28;20216;-75
2021/03/20 03:16:34;;;;;;;3.50;1.60;;;;;;;-1.22;70.55;101785.69;5073483;28;20201;-76
2021/03/20 03:19:07;;;;;;;2.87;1.70;;;;;;;-1.26;70.66;101789.78;5073912;28;20207;-76
2021/03/20 03:21:39;;;;;;;1.90;1.63;;;;;;;-1.30;70.08;101790.41;5073573;28;20213;-75
2021/03/20 03:24:07;;;;;;;4.90;2.00;;;;;;;-1.37;70.04;101785.78;5073873;28;20262;-76
2021/03/20 03:26:38;;;;;;;1.53;1.23;;;;;;;-1.40;70.92;101798.44;5073344;28;20340;-75
2021/03/20 03:29:08;;;;;;;3.70;2.00;;;;;;;-1.52;70.94;101800.38;5074107;28;20211;-75
2021/03/20 03:31:43;;;;;;;1.90;1.80;;;;;;;-1.64;71.52;101795.50;5072628;28;20212;-75
2021/03/20 03:34:16;;;;;;;3.17;1.90;;;;;;;-1.72;71.86;101792.53;5072947;28;20768;-75
2021/03/20 03:36:48;;;;;;;2.77;1.60;;;;;;;-1.70;72.45;101785.81;5073287;28;20193;-76
2021/03/20 03:39:21;;;;;;;2.57;1.80;;;;;;;-1.67;72.11;101779.94;5073029;28;20210;-75
2021/03/20 03:41:47;;;;;;;2.80;1.77;;;;;;;-1.57;72.28;101777.06;5065679;28;20627;-76
2021/03/20 03:44:13;;;;;;;3.43;2.17;;;;;;;-1.55;71.70;101778.03;5072339;28;20726;-76
2021/03/20 03:46:44;;;;;;;3.23;1.83;;;;;;;-1.50;71.32;101786.84;5073291;28;20217;-76
2021/03/20 03:49:20;;;;;;;3.00;1.60;;;;;;;-1.58;71.69;101797.50;5073385;28;20200;-75
2021/03/20 03:51:46;;;;;;;2.40;1.40;;;;;;;-1.54;71.71;101795.16;5073434;28;20250;-77
2021/03/20 03:54:13;;;;;;;1.60;1.40;;;;;;;-1.65;73.05;101799.69;5072522;28;20559;-76
2021/03/20 03:57:02;;;;;;;2.70;1.47;;;;;;;-1.73;73.20;101806.09;5073019;28;20209;-76
2021/03/20 03:59:44;;;;;;;5.03;2.00;;;;;;;-1.80;73.63;101812.59;5072675;28;20294;-77
2021/03/20 04:02:17;;;;;;;2.37;1.77;;;;;;;-1.71;73.26;101819.00;5073404;28;20208;-76
2021/03/20 04:04:59;;;;;;;3.10;2.00;;;;;;;-1.78;73.12;101822.00;5071836;28;20224;-76
2021/03/20 04:07:40;;;;;;;2.93;1.87;;;;;;;-1.88;74.19;101825.78;5073474;28;20200;-77
2021/03/20 04:10:14;;;;;;;3.20;1.70;;;;;;;-2.00;75.10;101833.66;5072399;28;20233;-74
2021/03/20 04:12:48;;;;;;;2.60;2.17;;;;;;;-1.91;74.59;101834.16;5072377;28;20621;-74
2021/03/20 04:15:23;;;;;;;3.10;1.80;;;;;;;-1.78;73.87;101840.81;5072274;28;20201;-76
2021/03/20 04:18:00;;;;;;;2.57;2.13;;;;;;;-1.73;73.27;101833.38;5064998;28;20258;-76
2021/03/20 04:20:35;;;;;;;2.00;1.77;;;;;;;-1.65;73.10;101829.56;5071821;28;20705;-77
2021/03/20 04:23:04;;;;;;;3.43;1.70;;;;;;;-1.61;72.90;101826.34;5072830;28;20287;-75
2021/03/20 04:25:40;;;;;;;2.67;1.83;;;;;;;-1.58;72.87;101826.53;5072005;28;20270;-75
2021/03/20 04:28:18;;;;;;;2.90;2.00;;;;;;;-1.54;72.64;101822.47;5073111;28;20205;-76
2021/03/20 04:30:47;;;;;;;3.17;2.13;;;;;;;-1.50;72.48;101819.25;5072061;28;20220;-76
2021/03/20 04:33:20;;;;;;;2.97;2.07;;;;;;;-1.52;72.47;101819.16;5072466;28;20212;-76
2021/03/20 04:35:53;;;;;;;2.30;1.80;;;;;;;-1.50;72.14;101829.50;5071461;28;20201;-76
2021/03/20 04:38:20;;;;;;;3.30;2.20;;;;;;;-1.54;72.52;101823.31;5072660;28;20201;-75
2021/03/20 04:40:50;;;;;;;2.73;2.23;;;;;;;-1.54;72.64;101833.56;5069548;28;20247;-75
2021/03/20 04:43:21;;;;;;;2.23;1.80;;;;;;;-1.48;72.39;101825.34;5071580;28;20602;-76
2021/03/20 04:45:50;;;;;;;2.77;1.87;;;;;;;-1.47;72.62;101830.50;5071930;28;20224;-75
2021/03/20 04:48:20;;;;;;;2.90;2.17;;;;;;;-1.46;72.90;101834.84;5072359;28;20204;-76
2021/03/20 04:50:51;;;;;;;3.53;2.10;;;;;;;-1.43;72.81;101826.44;5071419;28;20225;-76
2021/03/20 04:53:17;;;;;;;4.20;2.30;;;;;;;-1.55;73.14;101829.22;5072133;28;20577;-76
2021/03/20 04:55:44;;;;;;;3.13;2.30;;;;;;;-1.57;73.33;101823.16;5071743;28;20205;-76
2021/03/20 04:58:16;;;;;;;1.80;1.70;;;;;;;-1.56;73.17;101826.63;5072012;28;20207;-75
2021/03/20 05:00:46;;;;;;;2.43;2.23;;;;;;;-1.63;73.33;101826.25;5071555;28;20311;-76
2021/03/20 05:03:18;;;;;;;3.07;2.30;;;;;;;-1.64;74.19;101814.28;5071357;28;20572;-76
2021/03/20 05:05:49;;;;;;;3.27;1.80;;;;;;;-1.66;73.85;101804.78;5071399;28;20242;-76
2021/03/20 05:08:28;;;;;;;2.80;2.60;;;;;;;-1.71;74.79;101807.06;5072147;28;20573;-76
2021/03/20 05:10:59;;;;;;;3.30;2.43;;;;;;;-1.84;75.40;101808.09;5070772;28;20228;-76
2021/03/20 05:13:36;;;;;;;2.30;2.10;;;;;;;-1.86;75.26;101808.84;5071589;28;20196;-76
2021/03/20 05:16:07;;;;;;;3.80;2.20;;;;;;;-1.80;75.39;101807.47;5071555;28;20201;-76
2021/03/20 05:18:33;;;;;;;3.57;2.43;;;;;;;-1.74;75.25;101804.34;5071948;28;20209;-76
2021/03/20 05:20:58;;;;;;;2.83;2.43;;;;;;;-1.67;75.17;101800.44;5071272;28;20220;-75
2021/03/20 05:23:25;;;;;;;5.17;2.37;;;;;;;-1.65;75.04;101803.94;5071433;28;20204;-76
2021/03/20 05:25:51;;;;;;;2.97;2.10;;;;;;;-1.67;74.48;101806.44;5070961;28;20270;-75
2021/03/20 05:28:17;;;;;;;2.80;2.30;;;;;;;-1.67;74.73;101808.97;5071585;28;20205;-76
2021/03/20 05:30:43;;;;;;;3.40;2.23;;;;;;;-1.70;74.43;101807.97;5071209;28;20228;-75
2021/03/20 05:33:12;;;;;;;2.63;1.90;;;;;;;-1.65;74.46;101811.63;5070903;28;20200;-76
2021/03/20 05:35:37;;;;;;;3.00;2.17;;;;;;;-1.60;74.39;101803.41;5071126;28;20207;-75
2021/03/20 05:38:03;;;;;;;3.37;2.13;;;;;;;-1.58;74.21;101802.63;5071710;28;20630;-76
2021/03/20 05:40:33;;;;;;;5.13;2.30;;;;;;;-1.57;73.72;101799.25;5069381;28;20216;-76
2021/03/20 05:43:09;;;;;;;4.67;2.30;;;;;;;-1.70;74.58;101798.59;5071083;28;20208;-76
2021/03/20 05:45:40;;;;;;;3.17;1.87;;;;;;;-1.82;75.55;101803.94;5071151;28;20220;-76
2021/03/20 05:48:16;;;;;;;2.17;1.97;;;;;;;-1.89;75.83;101800.97;5071208;28;20586;-75
2021/03/20 05:51:09;;;;;;;4.03;2.07;;;;;;;-1.85;76.29;101810.56;5071188;28;20227;-75
2021/03/20 05:53:52;;;;;;;3.67;2.13;;;;;;;-1.80;76.30;101807.47;5063529;28;20231;-76
2021/03/20 05:56:26;;;;;;;2.80;2.43;;;;;;;-1.88;76.07;101806.19;5070561;28;20262;-76
2021/03/20 05:59:04;;;;;;;3.10;2.10;;;;;;;-1.88;75.89;101818.09;5067320;28;20196;-76
2021/03/20 06:01:40;;;;;;;3.23;2.10;;;;;;;-1.83;76.05;101820.09;5069919;28;20208;-75
2021/03/20 06:04:30;;;;;;;4.23;2.23;;;;;;;-1.85;76.70;101818.25;5068580;28;20224;-75
2021/03/20 06:07:11;;;;;;;3.20;2.30;;;;;;;-1.90;76.24;101819.66;5069988;28;20201;-75
2021/03/20 06:09:47;;;;;;;6.03;2.57;;;;;;;-1.69;76.24;101822.50;5069709;28;20243;-76
2021/03/20 06:12:31;;;;;;;2.60;1.83;;;;;;;-1.66;76.50;101831.25;5069935;28;20212;-75
2021/03/20 06:15:09;;;;;;;4.20;2.20;;;;;;;-1.60;75.86;101830.69;5070072;28;20201;-76
2021/03/20 06:17:52;;;;;;;3.23;2.20;;;;;;;-1.52;74.88;101828.53;5071133;28;20193;-76
2021/03/20 06:20:26;;;;;;;3.47;2.07;;;;;;;-1.47;74.73;101835.63;5083573;28;20229;-75
2021/03/20 06:23:19;;;;;;;3.47;2.03;;;;;;;-1.42;74.69;101838.47;5087010;28;20216;-75
2021/03/20 06:25:59;;;;;;;3.37;2.17;;;;;;;-1.32;75.40;101843.25;5067976;28;20319;-75
2021/03/20 06:28:33;;;;;;;3.43;2.07;;;;;;;-1.21;75.00;101843.78;5068786;28;20565;-76
2021/03/20 06:31:05;;;;;;;2.67;2.20;;;;;;;-1.15;75.02;101841.56;5070112;28;20227;-75
2021/03/20 06:33:34;;;;;;;3.13;2.13;;;;;;;-1.05;73.69;101842.91;5070053;28;20670;-76
2021/03/20 06:36:05;;;;;;;2.80;2.10;;;;;;;-0.90;72.44;101841.13;5069571;28;20204;-75
2021/03/20 06:38:39;;;;;;;4.33;2.90;;;;;;;-0.76;70.52;101846.06;5070589;28;20193;-76
2021/03/20 06:41:14;;;;;;;3.40;2.97;;;;;;;-0.83;71.10;101848.31;5068702;28;20741;-75
2021/03/20 06:43:49;;;;;;;4.03;3.17;;;;;;;-0.73;70.40;101844.53;5073921;28;20200;-76
2021/03/20 06:46:17;;;;;;;4.03;2.23;;;;;;;-0.66;70.43;101848.28;5073579;28;20204;-76
2021/03/20 06:48:45;;;;;;;3.17;2.37;;;;;;;-0.69;68.73;101849.00;5075406;22;20244;-76
2021/03/20 06:51:11;;;;;;;8.27;7.30;;;;;;;-0.84;67.73;101848.25;5050319;28;20213;-75
2021/03/20 06:53:42;;;;;;;4.67;2.80;;;;;;;-0.90;68.51;101847.94;5053615;28;20207;-75
2021/03/20 06:56:11;;;;;;;3.43;2.10;;;;;;;-1.27;69.07;101853.72;5046009;28;20201;-75
2021/03/20 06:58:38;;;;;;;5.60;2.40;;;;;;;-1.22;70.90;101855.72;5042796;28;20661;-76
2021/03/20 07:01:19;;;;;;;3.63;2.37;;;;;;;-1.06;72.65;101861.66;5045933;28;20580;-75
2021/03/20 07:04:16;;;;;;;4.33;2.47;;;;;;;-0.96;72.19;101866.44;5038794;28;20214;-75
2021/03/20 07:06:53;;;;;;;3.87;2.40;;;;;;;-1.04;72.40;101860.03;5037822;28;20342;-76
2021/03/20 07:09:19;;;;;;;2.93;2.63;;;;;;;-0.91;72.68;101876.91;5029163;28;20289;-76
2021/03/20 07:12:04;;;;;;;6.17;2.93;;;;;;;-0.99;72.81;101879.13;5033326;28;20206;-75
2021/03/20 07:14:40;;;;;;;5.77;4.37;;;;;;;-1.11;73.09;101884.50;5035313;28;20974;-75
2021/03/20 07:17:23;;;;;;;4.97;2.70;;;;;;;-1.15;72.62;101884.22;5029364;28;20252;-75
2021/03/20 07:19:55;;;;;;;3.53;3.23;;;;;;;-1.37;73.35;101882.22;5031681;28;20201;-75
2021/03/20 07:22:31;;;;;;;2.70;2.50;;;;;;;-1.63;73.50;101880.03;5028082;28;20290;-75
2021/03/20 07:24:59;;;;;;;3.43;2.60;;;;;;;-1.60;74.44;101879.34;5032045;28;20226;-75
2021/03/20 07:27:32;;;;;;;5.20;3.43;;;;;;;-1.25;75.04;101886.31;5028662;28;20218;-75
2021/03/20 07:30:01;;;;;;;4.17;2.37;;;;;;;-1.14;74.77;101888.56;5033335;28;20260;-75
2021/03/20 07:32:38;;;;;;;3.60;2.33;;;;;;;-1.27;74.17;101879.34;5029298;28;20589;-75
2021/03/20 07:35:30;;;;;;;3.83;2.70;;;;;;;-1.14;74.94;101878.31;5032361;28;20198;-75
2021/03/20 07:38:13;;;;;;;3.80;2.97;;;;;;;-1.29;75.41;101878.38;5023865;28;20624;-74
2021/03/20 07:40:39;;;;;;;6.23;1.90;;;;;;;-1.49;74.94;101872.22;5034567;28;20208;-74
2021/03/20 07:43:14;;;;;;;4.10;2.40;;;;;;;-1.44;73.90;101874.22;5032066;28;20209;-75
2021/03/20 07:45:42;;;;;;;4.73;2.20;;;;;;;-1.31;73.47;101860.41;5042380;28;20225;-75
2021/03/20 07:48:21;;;;;;;5.43;2.50;;;;;;;-1.22;74.49;101865.09;5037417;28;20249;-75
2021/03/20 07:50:58;;;;;;;2.77;2.07;;;;;;;-1.17;73.89;101867.91;5043597;28;20210;-75
2021/03/20 07:53:25;;;;;;;2.40;2.20;;;;;;;-1.10;72.09;101875.09;5058662;28;20206;-74
2021/03/20 07:55:59;;;;;;;2.63;1.73;;;;;;;-1.13;71.45;101873.28;5033314;28;20214;-75
2021/03/20 07:58:29;;;;;;;2.60;2.20;;;;;;;-1.24;70.25;101874.41;5042036;28;20268;-75
2021/03/20 08:00:58;;;;;;;3.80;2.17;;;;;;;-1.45;72.99;101875.03;5042540;28;20664;-76
2021/03/20 08:03:28;;;;;;;3.17;2.37;;;;;;;-1.38;72.00;101877.91;5027040;28;20230;-75
2021/03/20 08:05:54;;;;;;;2.60;2.20;;;;;;;-1.37;72.59;101870.28;5033149;28;20288;-75
2021/03/20 08:08:22;;;;;;;3.10;2.67;;;;;;;-1.39;72.83;101874.44;5036323;28;20241;-76
2021/03/20 08:10:50;;;;;;;3.90;2.40;;;;;;;-1.38;73.15;101868.53;5038943;28;20210;-76
2021/03/20 08:13:28;;;;;;;2.67;2.47;;;;;;;-1.28;73.04;101864.78;5031826;28;20218;-73
2021/03/20 08:15:56;;;;;;;3.37;2.60;;;;;;;-1.08;73.11;101865.81;5033174;28;20680;-73
2021/03/20 08:18:24;;;;;;;2.93;2.20;;;;;;;-0.91;72.57;101871.78;5040820;28;20657;-72
2021/03/20 08:21:08;;;;;;;5.00;2.43;;;;;;;-0.72;72.03;101871.06;5033906;28;20217;-71
2021/03/20 08:23:51;;;;;;;2.23;2.03;;;;;;;-0.67;71.77;101870.47;5028472;28;20629;-73
2021/03/20 08:26:25;;;;;;;4.17;2.90;;;;;;;-0.52;72.17;101870.34;5026714;28;20199;-72
2021/03/20 08:28:58;;;;;;;25.33;13.63;;;;;;;-0.39;71.71;101871.84;5026908;28;20226;-73
2021/03/20 08:31:41;;;;;;;4.67;3.40;;;;;;;-0.19;71.37;101864.22;5031718;28;20194;-71
2021/03/20 08:34:27;;;;;;;3.63;2.90;;;;;;;-0.08;70.33;101871.63;5026431;28;20202;-73
2021/03/20 08:37:08;;;;;;;4.17;2.47;;;;;;;-0.24;69.68;101871.69;5028890;28;20201;-72
2021/03/20 08:39:57;;;;;;;3.57;2.47;;;;;;;-0.34;70.34;101870.34;5036795;28;20789;-72
2021/03/20 08:42:32;;;;;;;2.93;2.00;;;;;;;-0.63;69.66;101868.94;5027777;28;20248;-72
2021/03/20 08:45:19;;;;;;;3.87;2.43;;;;;;;-0.52;70.05;101857.53;5040079;28;20225;-73
2021/03/20 08:48:07;;;;;;;3.90;2.70;;;;;;;-0.31;69.65;101862.81;5013774;28;20292;-72
2021/03/20 08:50:41;;;;;;;3.87;2.30;;;;;;;-0.38;67.32;101863.31;5041033;28;20210;-72
2021/03/20 08:53:13;;;;;;;3.43;1.93;;;;;;;-0.25;66.97;101858.00;5047200;28;20210;-73
2021/03/20 08:55:59;;;;;;;3.70;2.00;;;;;;;-0.20;65.74;101840.22;5043709;28;20201;-73
2021/03/20 08:58:51;;;;;;;6.13;2.03;;;;;;;0.10;66.42;101850.19;5045617;28;20241;-73
2021/03/20 09:01:27;;;;;;;21.77;3.70;;;;;;;-0.15;62.78;101854.19;5043911;28;20591;-73
2021/03/20 09:03:56;;;;;;;4.07;2.57;;;;;;;-0.18;64.94;101854.00;5044808;28;20656;-73
2021/03/20 09:06:30;;;;;;;4.03;1.73;;;;;;;-0.08;65.62;101838.28;5042529;28;20193;-73
2021/03/20 09:09:01;;;;;;;2.10;1.80;;;;;;;-0.15;65.92;101840.47;5044976;28;20239;-73
2021/03/20 09:11:38;;;;;;;3.47;2.10;;;;;;;0.07;64.92;101844.91;5033814;28;20202;-73
2021/03/20 09:14:13;;;;;;;2.87;2.17;;;;;;;0.12;65.10;101844.34;5033619;28;20202;-71
2021/03/20 09:16:44;;;;;;;3.67;2.10;;;;;;;0.16;64.97;101837.66;5040195;28;20209;-72
2021/03/20 09:19:18;;;;;;;3.43;2.23;;;;;;;0.17;64.44;101844.53;5033126;28;20221;-73
2021/03/20 09:21:44;;;;;;;2.20;1.63;;;;;;;0.17;64.81;101850.53;5035295;28;20254;-73
2021/03/20 09:24:16;;;;;;;3.17;1.60;;;;;;;0.11;64.65;101850.25;5044296;28;20202;-73
2021/03/20 09:26:45;;;;;;;3.23;2.30;;;;;;;0.19;64.84;101848.91;5043011;28;20202;-71
2021/03/20 09:29:18;;;;;;;3.07;1.70;;;;;;;0.25;62.12;101855.16;5044289;28;20225;-70
2021/03/20 09:32:09;;;;;;;2.27;1.70;;;;;;;0.25;62.52;101850.91;5023361;28;20202;-73
2021/03/20 09:34:58;;;;;;;2.07;1.50;;;;;;;0.63;63.66;101854.31;5038501;28;20201;-73
2021/03/20 09:37:50;;;;;;;2.00;1.47;;;;;;;0.81;60.91;101854.25;5047162;28;20680;-73
2021/03/20 09:40:52;;;;;;;3.13;1.67;;;;;;;0.70;59.13;101864.06;5036134;28;20289;-73
2021/03/20 09:43:44;;;;;;;2.37;1.53;;;;;;;0.76;59.75;101859.19;5027007;28;20252;-73
2021/03/20 09:46:51;;;;;;;1.90;1.80;;;;;;;0.71;56.31;101863.22;5034361;28;20218;-73
2021/03/20 09:49:47;;;;;;;2.10;1.40;;;;;;;0.92;58.17;101857.28;4977423;28;20231;-73
2021/03/20 09:52:30;;;;;;;1.30;1.20;;;;;;;1.08;58.09;101863.97;5043218;28;20206;-72
2021/03/20 09:54:56;;;;;;;1.67;1.10;;;;;;;0.94;56.20;101863.38;5039265;28;20758;-72
2021/03/20 09:57:51;;;;;;;2.27;1.17;;;;;;;0.90;55.11;101858.91;5048551;28;20201;-72
2021/03/20 10:00:46;;;;;;;2.30;1.30;;;;;;;0.83;54.94;101851.75;5036410;28;20685;-73
2021/03/20 10:03:36;;;;;;;1.90;1.10;;;;;;;1.26;55.20;101846.72;5015916;28;20607;-72
2021/03/20 10:06:17;;;;;;;1.73;1.57;;;;;;;1.44;58.29;101838.91;5034398;28;20279;-72
2021/03/20 10:08:45;;;;;;;6.20;1.80;;;;;;;1.34;56.63;101839.34;5029810;28;20255;-72
2021/03/20 10:11:28;;;;;;;2.13;1.20;;;;;;;1.55;54.64;101842.78;5035535;28;20217;-73
2021/03/20 10:13:55;;;;;;;5.77;2.80;;;;;;;1.53;51.72;101841.84;5028589;28;20205;-73
2021/03/20 10:16:24;;;;;;;1.73;1.60;;;;;;;1.71;55.52;101833.13;5044971;28;20207;-73
2021/03/20 10:19:07;;;;;;;3.43;2.97;;;;;;;1.88;49.85;101837.22;5048540;28;20225;-73
2021/03/20 10:21:33;;;;;;;2.23;1.60;;;;;;;1.30;49.22;101838.31;5047124;28;20205;-72
2021/03/20 10:24:19;;;;;;;2.83;1.93;;;;;;;1.44;51.07;101836.31;5048368;28;20263;-73
2021/03/20 10:26:51;;;;;;;2.00;1.40;;;;;;;1.40;47.49;101834.44;5039631;28;20202;-73
2021/03/20 10:29:29;;;;;;;2.77;2.30;;;;;;;1.31;47.91;101821.19;5048716;28;20367;-73
2021/03/20 10:32:03;;;;;;;3.37;3.07;;;;;;;1.28;52.35;101828.81;5041669;28;20266;-72
2021/03/20 10:34:43;;;;;;;2.03;1.83;;;;;;;1.41;50.35;101831.06;5046682;28;20231;-73
2021/03/20 10:37:12;;;;;;;49.27;33.90;;;;;;;1.51;47.63;101828.06;5050563;28;20279;-73
2021/03/20 10:39:41;;;;;;;3.07;2.87;;;;;;;1.44;44.24;101820.03;5045917;28;20221;-73
2021/03/20 10:42:17;;;;;;;3.10;2.00;;;;;;;1.57;46.31;101822.28;5034708;28;20301;-73
2021/03/20 10:44:46;;;;;;;3.90;3.47;;;;;;;1.71;45.17;101821.13;5042249;28;20226;-73
2021/03/20 10:47:22;;;;;;;1.37;1.27;;;;;;;1.96;43.66;101822.06;5050398;28;20566;-73
2021/03/20 10:49:52;;;;;;;3.43;2.30;;;;;;;2.06;42.78;101820.72;5043217;28;20217;-73
2021/03/20 10:52:21;;;;;;;1.93;1.30;;;;;;;2.06;42.57;101820.72;5051522;28;20206;-72
2021/03/20 10:54:52;;;;;;;0.93;0.83;;;;;;;2.09;43.56;101811.41;5043857;28;20206;-73
2021/03/20 10:57:22;;;;;;;3.53;3.33;;;;;;;2.36;43.10;101809.00;5051130;28;20206;-73
2021/03/20 10:59:50;;;;;;;4.77;4.47;;;;;;;2.09;42.29;101800.25;5043902;28;20215;-73
2021/03/20 11:02:27;;;;;;;2.33;2.17;;;;;;;2.11;46.76;101801.19;5050947;28;20209;-73
2021/03/20 11:04:55;;;;;;;1.87;1.17;;;;;;;2.30;43.86;101797.56;5043043;28;20766;-72
2021/03/20 11:07:23;;;;;;;1.27;1.00;;;;;;;2.38;42.90;101788.47;5051417;28;20201;-72
2021/03/20 11:09:49;;;;;;;8.93;8.33;;;;;;;2.51;43.48;101789.75;5043819;28;20212;-73
2021/03/20 11:12:24;;;;;;;3.80;1.30;;;;;;;2.64;41.55;101780.78;5034682;28;20198;-73
2021/03/20 11:14:54;;;;;;;1.97;1.10;;;;;;;2.85;42.55;101766.03;5040081;28;20255;-73
2021/03/20 11:17:22;;;;;;;2.57;1.20;;;;;;;2.76;41.62;101764.03;5051263;28;20205;-72
2021/03/20 11:19:57;;;;;;;1.23;0.83;;;;;;;3.10;41.64;101777.19;5038550;28;20670;-72
2021/03/20 11:22:27;;;;;;;1.97;1.07;;;;;;;3.37;43.41;101765.19;5051750;28;20206;-73
2021/03/20 11:24:55;;;;;;;0.83;0.70;;;;;;;3.86;44.86;101762.34;5042856;28;20320;-72
2021/03/20 11:27:25;;;;;;;1.30;0.83;;;;;;;3.76;41.80;101769.81;5050675;28;20203;-71
2021/03/20 11:29:55;;;;;;;1.73;1.33;;;;;;;4.01;40.74;101757.66;5042905;28;20206;-73
2021/03/20 11:32:25;;;;;;;1.43;1.20;;;;;;;3.91;37.74;101759.06;5050626;28;20247;-73
2021/03/20 11:35:01;;;;;;;6.40;6.00;;;;;;;4.11;39.33;101759.66;5042379;28;20198;-72
2021/03/20 11:37:28;;;;;;;3.20;3.00;;;;;;;4.67;39.66;101743.09;5043799;28;20202;-73
2021/03/20 11:39:54;;;;;;;1.43;0.87;;;;;;;5.04;36.21;101734.56;5039319;28;20207;-72
2021/03/20 11:42:25;;;;;;;1.40;0.93;;;;;;;4.72;36.33;101731.16;5029732;28;20210;-71
2021/03/20 11:44:51;;;;;;;0.77;0.77;;;;;;;5.22;35.12;101726.34;5034035;28;20231;-73
2021/03/20 11:47:24;;;;;;;0.70;0.70;;;;;;;5.32;36.11;101712.78;5031922;28;20212;-73
2021/03/20 11:49:53;;;;;;;0.90;0.90;;;;;;;4.73;36.52;101707.03;5027095;28;20449;-72
2021/03/20 11:52:21;;;;;;;3.57;0.90;;;;;;;3.95;37.57;101718.72;5032613;28;20256;-72
2021/03/20 11:54:57;;;;;;;1.23;1.00;;;;;;;4.09;37.97;101719.13;5039004;28;20205;-73